Time;durP1;ratioP1;P1;durP2;ratioP2;P2;SDS_P1;SDS_P2;PMS_P1;PMS_P2;Temp;Humidity;BMP_temperature;BMP_pressure;BME280_temperature;BME280_humidity;BME280_pressure;Samples;Min_cycle;Max_cycle;Signal;HPM_P1;HPM_P2
2023/02/06 00:00:34;;;;;;;1.52;1.40;;;;;;;-3.20;100.00;98414.63;5053364;28;20151;-78
2023/02/06 00:03:00;;;;;;;1.40;1.30;;;;;;;-3.24;100.00;98418.09;5036764;28;20029;-80
2023/02/06 00:05:28;;;;;;;0.60;0.60;;;;;;;-3.26;100.00;98414.56;5037025;28;20039;-78
2023/02/06 00:07:53;;;;;;;0.47;0.47;;;;;;;-3.04;100.00;98434.75;5036635;28;20551;-78
2023/02/06 00:10:19;;;;;;;1.40;1.30;;;;;;;-3.05;100.00;98446.09;5042284;28;20038;-79
2023/02/06 00:12:44;;;;;;;0.95;0.95;;;;;;;-3.18;100.00;98428.59;5039975;28;20024;-78
2023/02/06 00:15:10;;;;;;;0.50;0.50;;;;;;;-3.10;100.00;98436.47;5056548;28;20051;-78
2023/02/06 00:17:36;;;;;;;1.92;1.08;;;;;;;-3.04;100.00;98433.88;5065398;28;20501;-79
2023/02/06 00:20:06;;;;;;;0.68;0.68;;;;;;;-3.13;100.00;98425.97;5073238;28;20066;-78
2023/02/06 00:22:32;;;;;;;1.02;0.88;;;;;;;-3.20;100.00;98419.88;5066574;28;20484;-79
2023/02/06 00:28:57;;;;;;;0.47;0.47;;;;;;;-3.29;100.00;98404.06;4990150;28;20124;-79
2023/02/06 00:31:25;;;;;;;0.70;0.70;;;;;;;-3.63;100.00;98368.16;5032534;28;20039;-77
2023/02/06 00:33:53;;;;;;;0.50;0.50;;;;;;;-3.27;100.00;98436.38;5056187;28;20032;-77
2023/02/06 00:36:19;;;;;;;0.40;0.40;;;;;;;-3.39;100.00;98441.53;5073580;28;20020;-79
2023/02/06 00:38:44;;;;;;;1.45;1.35;;;;;;;-3.39;100.00;98428.44;5068764;28;20544;-77
2023/02/06 00:41:10;;;;;;;0.50;0.50;;;;;;;-3.58;100.00;98408.25;5060605;28;20024;-79
2023/02/06 00:43:36;;;;;;;0.50;0.50;;;;;;;-3.39;100.00;98439.78;5077602;28;20608;-77
2023/02/06 00:46:01;;;;;;;0.80;0.80;;;;;;;-3.35;100.00;98424.97;5056240;28;20028;-79
2023/02/06 00:48:27;;;;;;;0.70;0.70;;;;;;;-3.40;100.00;98426.69;5040188;28;20404;-79
2023/02/06 00:50:53;;;;;;;0.52;0.52;;;;;;;-3.48;100.00;98408.34;5048506;28;20036;-78
2023/02/06 00:53:18;;;;;;;1.13;1.13;;;;;;;-3.39;100.00;98407.53;5040053;28;20039;-78
2023/02/06 00:55:44;;;;;;;0.60;0.60;;;;;;;-3.42;100.00;98411.00;5056988;28;20024;-78
2023/02/06 00:58:09;;;;;;;1.85;1.75;;;;;;;-3.50;100.00;98407.44;5057046;28;20403;-79
2023/02/06 01:00:35;;;;;;;1.23;1.20;;;;;;;-3.53;100.00;98419.59;5057174;28;20028;-79
2023/02/06 01:03:00;;;;;;;5.30;3.42;;;;;;;-3.58;100.00;98431.78;5060010;28;20455;-78
2023/02/06 01:05:26;;;;;;;7.22;1.23;;;;;;;-3.63;100.00;98428.28;5059842;28;20036;-77
2023/02/06 01:07:52;;;;;;;2.55;1.92;;;;;;;-3.49;100.00;98437.09;5076932;28;20027;-78
2023/02/06 01:10:18;;;;;;;0.40;0.40;;;;;;;-3.61;100.00;98426.53;5060138;28;20093;-78
2023/02/06 01:12:43;;;;;;;0.40;0.40;;;;;;;-3.63;100.00;98434.34;5058670;28;20028;-77
2023/02/06 01:15:11;;;;;;;0.57;0.57;;;;;;;-3.67;100.00;98421.25;5039879;28;20024;-78
2023/02/06 01:17:37;;;;;;;1.08;1.08;;;;;;;-3.66;100.00;98428.25;5050510;28;20082;-78
2023/02/06 01:20:03;;;;;;;0.50;0.50;;;;;;;-3.64;100.00;98431.75;5060399;28;20064;-78
2023/02/06 01:22:31;;;;;;;1.05;1.05;;;;;;;-3.70;100.00;98431.69;5059624;28;20122;-78
2023/02/06 01:25:51;;;;;;;0.40;0.40;;;;;;;-4.07;100.00;98379.13;5053827;28;20074;-79
2023/02/06 01:28:17;;;;;;;0.63;0.63;;;;;;;-3.75;100.00;98433.41;5054781;28;20032;-79
2023/02/06 01:30:42;;;;;;;0.88;0.88;;;;;;;-3.88;100.00;98417.63;5048108;28;20017;-77
2023/02/06 01:33:14;;;;;;;0.82;0.82;;;;;;;-3.91;100.00;98425.41;5063422;28;20475;-77
2023/02/06 01:36:00;;;;;;;0.80;0.80;;;;;;;-3.90;100.00;98431.50;5076123;28;20457;-78
2023/02/06 01:45:39;;;;;;;0.57;0.57;;;;;;;-3.81;100.00;98457.72;4999597;28;20079;-78
2023/02/06 01:48:10;;;;;;;0.85;0.85;;;;;;;-3.77;100.00;98463.84;4991905;28;20057;-79
2023/02/06 01:50:38;;;;;;;0.57;0.57;;;;;;;-3.83;100.00;98455.09;5035186;28;20047;-78
2023/02/06 01:53:05;;;;;;;0.93;0.93;;;;;;;-3.76;100.00;98461.25;5076632;28;20536;-78
2023/02/06 01:55:34;;;;;;;0.60;0.60;;;;;;;-3.82;100.00;98466.44;5044694;28;20182;-77
2023/02/06 01:58:00;;;;;;;0.60;0.60;;;;;;;-3.80;100.00;98463.81;5043624;28;20047;-77
2023/02/06 02:00:26;;;;;;;0.50;0.50;;;;;;;-3.87;100.00;98449.81;5057511;28;20063;-78
2023/02/06 02:02:51;;;;;;;0.95;0.95;;;;;;;-3.91;100.00;98446.31;5054102;28;20498;-78
2023/02/06 02:05:21;;;;;;;4.57;3.13;;;;;;;-3.94;100.00;98448.88;5051237;28;20488;-78
2023/02/06 02:08:03;;;;;;;1.08;1.05;;;;;;;-3.96;100.00;98441.91;5043351;28;20078;-77
2023/02/06 02:10:30;;;;;;;0.95;0.95;;;;;;;-3.92;100.00;98449.81;5039196;28;20027;-77
2023/02/06 02:12:55;;;;;;;0.90;0.90;;;;;;;-3.96;100.00;98449.75;5038750;28;20025;-77
2023/02/06 02:15:25;;;;;;;0.60;0.60;;;;;;;-3.99;100.00;98449.72;5077918;28;20153;-78
2023/02/06 02:18:17;;;;;;;0.50;0.50;;;;;;;-4.04;100.00;98456.63;5066916;28;20024;-78
2023/02/06 02:21:04;;;;;;;1.17;1.08;;;;;;;-4.09;100.00;98464.41;5054913;28;20040;-78
2023/02/06 02:23:40;;;;;;;0.73;0.73;;;;;;;-4.07;100.00;98475.78;5067175;28;20028;-77
2023/02/06 02:26:12;;;;;;;0.70;0.70;;;;;;;-4.06;100.00;98482.72;5055086;28;20123;-78
2023/02/06 02:32:13;;;;;;;0.50;0.50;;;;;;;-3.98;100.00;98494.16;5064594;28;20404;-78
2023/02/06 02:35:01;;;;;;;1.75;1.65;;;;;;;-3.98;100.00;98499.38;5064425;28;20487;-78
2023/02/06 02:38:03;;;;;;;0.60;0.60;;;;;;;-4.06;100.00;98489.72;5050536;28;20039;-78
2023/02/06 02:40:46;;;;;;;0.63;0.63;;;;;;;-4.10;100.00;98478.34;5048187;28;20036;-79
2023/02/06 02:43:29;;;;;;;0.40;0.40;;;;;;;-4.05;100.00;98481.88;5074843;28;20023;-78
2023/02/06 02:46:19;;;;;;;0.43;0.43;;;;;;;-3.91;100.00;98488.09;5050106;28;20023;-78
2023/02/06 02:48:46;;;;;;;0.57;0.57;;;;;;;-3.90;100.00;98482.03;5054918;28;20028;-78
2023/02/06 02:51:12;;;;;;;0.50;0.50;;;;;;;-3.88;100.00;98472.50;5063041;28;20032;-77
2023/02/06 02:53:37;;;;;;;0.95;0.95;;;;;;;-3.89;100.00;98462.00;5043682;28;20035;-77
2023/02/06 02:56:13;;;;;;;2.75;2.17;;;;;;;-3.90;100.00;98450.69;5069525;28;20036;-76
2023/02/06 02:58:38;;;;;;;0.47;0.47;;;;;;;-3.80;100.00;98455.97;5046132;28;20089;-77
2023/02/06 03:01:07;;;;;;;3.00;1.70;;;;;;;-3.78;100.00;98462.97;5067694;28;20031;-78
2023/02/06 03:03:34;;;;;;;1.20;1.10;;;;;;;-3.73;100.00;98478.72;5061573;28;20512;-77
2023/02/06 03:06:06;;;;;;;0.77;0.77;;;;;;;-3.72;100.00;98475.25;5038035;28;20024;-78
2023/02/06 03:08:41;;;;;;;2.25;2.05;;;;;;;-3.78;100.00;98460.34;5092246;28;20049;-77
2023/02/06 03:11:15;;;;;;;0.90;0.90;;;;;;;-3.78;100.00;98465.56;5074333;28;20124;-79
2023/02/06 03:13:54;;;;;;;1.05;1.05;;;;;;;-3.70;100.00;98482.22;5049444;28;20035;-77
2023/02/06 03:16:24;;;;;;;5.43;0.95;;;;;;;-3.73;100.00;98473.47;5049099;28;20039;-79
2023/02/06 03:19:08;;;;;;;0.60;0.60;;;;;;;-3.71;100.00;98477.84;5052003;28;20031;-79
2023/02/06 03:21:37;;;;;;;0.52;0.52;;;;;;;-3.76;100.00;98463.00;5049022;28;20036;-78
2023/02/06 03:24:08;;;;;;;1.05;1.05;;;;;;;-3.71;100.00;98474.34;5074624;28;20024;-78
2023/02/06 03:26:36;;;;;;;0.80;0.80;;;;;;;-3.76;100.00;98468.22;5061772;28;20490;-77
2023/02/06 03:29:05;;;;;;;4.65;2.50;;;;;;;-3.74;100.00;98471.72;5040175;28;20024;-78
2023/02/06 03:31:54;;;;;;;1.35;1.25;;;;;;;-3.72;100.00;98467.41;5042498;28;20039;-78
2023/02/06 03:34:58;;;;;;;0.50;0.50;;;;;;;-3.78;100.00;98477.81;5058916;28;20024;-77
2023/02/06 03:37:23;;;;;;;3.10;1.27;;;;;;;-3.84;100.00;98476.84;5009632;28;20417;-77
2023/02/06 03:39:49;;;;;;;0.60;0.60;;;;;;;-3.92;100.00;98462.88;4977126;28;20038;-78
2023/02/06 03:42:16;;;;;;;0.88;0.88;;;;;;;-3.89;100.00;98473.34;5030643;28;20044;-78
2023/02/06 03:44:44;;;;;;;0.68;0.68;;;;;;;-3.87;100.00;98475.94;5073543;28;20028;-77
2023/02/06 03:47:10;;;;;;;0.60;0.60;;;;;;;-4.00;100.00;98461.03;5053287;28;20044;-78
2023/02/06 03:49:38;;;;;;;1.17;1.17;;;;;;;-4.06;100.00;98461.84;5037063;28;20508;-78
2023/02/06 03:52:15;;;;;;;0.68;0.68;;;;;;;-4.08;100.00;98470.53;5044915;28;20056;-81
2023/02/06 03:54:48;;;;;;;0.55;0.55;;;;;;;-4.13;100.00;98462.66;5043858;28;20484;-81
2023/02/06 03:57:18;;;;;;;0.50;0.50;;;;;;;-4.13;100.00;98467.88;5036978;28;20038;-81
2023/02/06 03:59:47;;;;;;;0.50;0.50;;;;;;;-4.12;100.00;98472.22;5042167;28;20085;-78
2023/02/06 04:02:13;;;;;;;0.82;0.82;;;;;;;-4.18;100.00;98466.09;5053743;28;20024;-81
2023/02/06 04:04:41;;;;;;;0.60;0.60;;;;;;;-4.07;100.00;98473.16;5036607;28;20056;-79
2023/02/06 04:07:18;;;;;;;0.70;0.70;;;;;;;-4.04;100.00;98462.75;5053284;28;20036;-77
2023/02/06 04:09:44;;;;;;;0.45;0.45;;;;;;;-4.02;100.00;98460.13;5071919;28;20500;-81
2023/02/06 04:12:10;;;;;;;1.85;0.95;;;;;;;-3.89;100.00;98468.13;5038681;28;20043;-80
2023/02/06 04:14:36;;;;;;;1.73;1.25;;;;;;;-3.86;100.00;98475.09;5045103;28;20468;-81
2023/02/06 04:17:03;;;;;;;1.02;0.93;;;;;;;-3.85;100.00;98477.75;5051102;28;20066;-81
2023/02/06 04:19:28;;;;;;;0.40;0.40;;;;;;;-3.97;100.00;98458.47;5073317;28;20021;-81
2023/02/06 04:21:54;;;;;;;0.60;0.60;;;;;;;-3.87;100.00;98470.72;5056736;28;20081;-80
2023/02/06 04:24:19;;;;;;;0.40;0.40;;;;;;;-3.93;100.00;98476.78;5056368;28;20028;-80
2023/02/06 04:26:45;;;;;;;2.05;1.85;;;;;;;-3.99;100.00;98460.16;5053337;28;20027;-80
2023/02/06 04:29:11;;;;;;;0.55;0.55;;;;;;;-3.99;100.00;98463.66;5055163;28;20039;-80
2023/02/06 04:31:38;;;;;;;0.70;0.70;;;;;;;-3.90;100.00;98489.00;5070345;28;20025;-77
2023/02/06 04:34:03;;;;;;;11.68;1.35;;;;;;;-3.94;100.00;98484.63;5036269;28;20024;-76
2023/02/06 04:36:29;;;;;;;1.10;1.05;;;;;;;-3.94;100.00;98484.63;5054488;28;20047;-76
2023/02/06 04:38:54;;;;;;;0.70;0.70;;;;;;;-4.06;100.00;98481.88;5056284;28;20526;-76
2023/02/06 04:41:20;;;;;;;0.55;0.55;;;;;;;-4.09;100.00;98474.84;5069864;28;20024;-75
2023/02/06 04:43:45;;;;;;;0.50;0.50;;;;;;;-4.01;100.00;98488.00;5053146;28;20043;-77
2023/02/06 04:46:11;;;;;;;3.50;2.67;;;;;;;-4.07;100.00;98490.56;5052802;28;20043;-76
2023/02/06 04:48:36;;;;;;;0.65;0.65;;;;;;;-4.06;100.00;98490.56;5069344;28;20020;-76
2023/02/06 04:51:03;;;;;;;0.50;0.50;;;;;;;-3.97;100.00;98502.88;5044475;28;20032;-76
2023/02/06 04:53:28;;;;;;;1.88;1.80;;;;;;;-4.02;100.00;98494.97;5054451;28;20034;-77
2023/02/06 04:56:01;;;;;;;0.80;0.80;;;;;;;-3.95;100.00;98488.97;5036336;28;20028;-78
2023/02/06 04:58:26;;;;;;;0.60;0.60;;;;;;;-4.03;100.00;98498.44;5071336;28;20463;-76
2023/02/06 05:00:52;;;;;;;0.70;0.70;;;;;;;-3.99;100.00;98512.41;5049678;28;20058;-76
2023/02/06 05:03:17;;;;;;;0.50;0.50;;;;;;;-4.01;100.00;98508.91;5060973;28;20056;-75
2023/02/06 05:05:44;;;;;;;0.60;0.60;;;;;;;-4.00;100.00;98529.81;5045181;28;20043;-78
2023/02/06 05:08:09;;;;;;;1.25;1.15;;;;;;;-4.10;100.00;98520.16;5053758;28;20073;-77
2023/02/06 05:10:35;;;;;;;0.80;0.80;;;;;;;-3.99;100.00;98528.09;5043580;28;20024;-76
2023/02/06 05:13:00;;;;;;;0.60;0.60;;;;;;;-4.01;100.00;98533.31;5051907;28;20067;-77
2023/02/06 05:15:26;;;;;;;0.55;0.55;;;;;;;-4.13;100.00;98514.88;5071143;28;20030;-71
2023/02/06 05:17:51;;;;;;;1.88;1.50;;;;;;;-4.05;100.00;98544.56;5076865;28;20039;-77
2023/02/06 05:20:17;;;;;;;1.02;1.02;;;;;;;-4.00;100.00;98544.63;5062048;28;20028;-75
2023/02/06 05:22:43;;;;;;;0.70;0.70;;;;;;;-3.91;100.00;98552.56;5035802;28;20028;-75
2023/02/06 05:25:08;;;;;;;0.52;0.52;;;;;;;-3.90;100.00;98546.47;5056416;28;20527;-75
2023/02/06 05:27:41;;;;;;;1.40;1.30;;;;;;;-3.81;100.00;98554.41;5063542;28;20099;-78
2023/02/06 05:30:07;;;;;;;0.70;0.70;;;;;;;-3.85;100.00;98555.25;5072432;28;20060;-78
2023/02/06 05:32:36;;;;;;;0.63;0.63;;;;;;;-3.87;100.00;98547.38;5056006;28;20032;-77
2023/02/06 05:35:01;;;;;;;0.50;0.50;;;;;;;-3.80;100.00;98553.56;5056016;28;20419;-77
2023/02/06 05:37:27;;;;;;;0.68;0.68;;;;;;;-3.80;100.00;98561.38;5039498;28;20024;-76
2023/02/06 05:39:52;;;;;;;1.67;1.58;;;;;;;-3.74;100.00;98566.69;5048890;28;20149;-76
2023/02/06 05:42:18;;;;;;;8.45;2.05;;;;;;;-3.76;100.00;98564.91;5068906;28;20024;-77
2023/02/06 05:44:43;;;;;;;0.60;0.60;;;;;;;-3.66;100.00;98578.06;5058828;28;20099;-77
2023/02/06 05:47:09;;;;;;;0.73;0.73;;;;;;;-3.70;100.00;98567.59;5039185;28;20024;-76
2023/02/06 05:49:34;;;;;;;0.55;0.50;;;;;;;-3.71;100.00;98561.47;5063650;28;20024;-76
2023/02/06 05:52:00;;;;;;;0.65;0.65;;;;;;;-3.63;100.00;98569.41;5063703;28;20059;-78
2023/02/06 05:54:25;;;;;;;1.05;1.05;;;;;;;-3.59;100.00;98566.84;5044270;28;20113;-78
2023/02/06 05:56:51;;;;;;;0.70;0.70;;;;;;;-3.64;100.00;98565.03;5050801;28;20542;-77
2023/02/06 05:59:16;;;;;;;1.05;0.95;;;;;;;-3.59;100.00;98581.63;5051403;28;20035;-77
2023/02/06 06:01:42;;;;;;;0.57;0.57;;;;;;;-3.60;100.00;98579.91;5042794;28;20128;-76
2023/02/06 06:04:08;;;;;;;1.20;1.10;;;;;;;-3.49;100.00;98589.59;5055107;28;20045;-76
2023/02/06 06:06:33;;;;;;;12.85;5.85;;;;;;;-3.47;100.00;98593.09;5045751;28;20020;-76
2023/02/06 06:09:02;;;;;;;19.33;12.55;;;;;;;-3.48;100.00;98586.13;5064979;28;20016;-76
2023/02/06 06:11:28;;;;;;;7.88;6.28;;;;;;;-3.36;100.00;98596.72;5064090;28;20023;-77
2023/02/06 06:13:54;;;;;;;7.07;5.93;;;;;;;-3.44;100.00;98587.91;5045325;28;20094;-77
2023/02/06 06:16:19;;;;;;;1.02;1.02;;;;;;;-3.57;100.00;98574.69;5048347;28;20016;-77
2023/02/06 06:18:45;;;;;;;7.07;6.05;;;;;;;-3.51;100.00;98580.00;5038407;28;20119;-77
2023/02/06 06:21:16;;;;;;;3.08;2.88;;;;;;;-3.57;100.00;98569.47;5056458;28;20484;-78
2023/02/06 06:23:42;;;;;;;8.95;5.75;;;;;;;-3.43;100.00;98573.09;5075341;28;20100;-76
2023/02/06 06:26:07;;;;;;;3.03;2.72;;;;;;;-3.25;100.00;98591.56;5086679;28;20028;-77
2023/02/06 06:28:34;;;;;;;4.68;4.18;;;;;;;-3.14;100.00;98596.91;5046327;28;20405;-78
2023/02/06 06:31:10;;;;;;;2.95;2.75;;;;;;;-3.05;100.00;98596.97;5054948;28;20036;-76
2023/02/06 06:33:36;;;;;;;2.38;2.17;;;;;;;-3.09;100.00;98587.34;5055411;28;20533;-77
2023/02/06 06:36:02;;;;;;;3.20;2.28;;;;;;;-3.05;100.00;98590.00;5046558;28;20024;-76
2023/02/06 06:38:28;;;;;;;5.97;2.85;;;;;;;-3.06;100.00;98574.28;5054110;28;20025;-77
2023/02/06 06:40:53;;;;;;;2.53;1.40;;;;;;;-3.11;100.00;98571.66;5054342;28;20016;-76
2023/02/06 06:43:19;;;;;;;1.00;0.85;;;;;;;-3.08;100.00;98570.78;5070238;28;20031;-78
2023/02/06 06:45:45;;;;;;;0.93;0.93;;;;;;;-3.07;100.00;98575.13;5053667;28;20024;-77
2023/02/06 06:48:11;;;;;;;1.17;1.02;;;;;;;-2.76;100.00;98612.03;5039409;28;20043;-77
2023/02/06 06:50:36;;;;;;;1.10;1.10;;;;;;;-2.82;100.00;98600.63;5037628;28;20031;-77
2023/02/06 06:53:02;;;;;;;0.88;0.88;;;;;;;-2.76;100.00;98591.09;5037702;28;20051;-78
2023/02/06 06:55:27;;;;;;;5.10;2.22;;;;;;;-2.70;100.00;98602.47;5037477;28;20111;-76
2023/02/06 06:57:53;;;;;;;2.60;2.17;;;;;;;-2.68;100.00;98587.66;5037390;28;20043;-76
2023/02/06 07:00:19;;;;;;;1.35;1.23;;;;;;;-2.55;100.00;98594.75;5037452;28;20079;-78
2023/02/06 07:02:44;;;;;;;1.35;1.25;;;;;;;-2.93;100.00;98570.91;5041506;28;20051;-76
2023/02/06 07:05:10;;;;;;;0.93;0.93;;;;;;;-2.75;100.00;98581.50;5051954;28;20075;-77
2023/02/06 07:07:37;;;;;;;0.70;0.70;;;;;;;-2.66;100.00;98585.91;5053714;28;20485;-76
2023/02/06 07:10:06;;;;;;;1.30;1.30;;;;;;;-2.62;100.00;98590.31;5041779;28;20033;-77
2023/02/06 07:12:32;;;;;;;1.20;1.05;;;;;;;-2.57;100.00;98599.06;5046665;28;20032;-77
2023/02/06 07:14:58;;;;;;;0.80;0.80;;;;;;;-2.56;100.00;98592.97;5046365;28;20112;-77
2023/02/06 07:17:23;;;;;;;0.80;0.80;;;;;;;-2.57;100.00;98581.63;5061614;28;20035;-77
2023/02/06 07:19:51;;;;;;;3.40;2.85;;;;;;;-2.55;100.00;98602.59;5044265;28;20032;-77
2023/02/06 07:22:20;;;;;;;2.15;1.95;;;;;;;-2.41;100.00;98585.22;5043907;28;20113;-77
2023/02/06 07:24:45;;;;;;;0.50;0.50;;;;;;;-2.22;100.00;98589.69;5047323;28;20032;-76
2023/02/06 07:27:11;;;;;;;2.83;2.35;;;;;;;-2.27;100.00;98576.53;5036293;28;20024;-76
2023/02/06 07:29:37;;;;;;;0.73;0.73;;;;;;;-2.37;100.00;98584.38;5046346;28;20080;-76
2023/02/06 07:32:03;;;;;;;1.33;1.33;;;;;;;-2.29;100.00;98582.66;5040392;28;20033;-76
2023/02/06 07:34:29;;;;;;;0.50;0.50;;;;;;;-2.11;100.00;98582.72;5036273;28;20107;-76
2023/02/06 07:36:55;;;;;;;0.40;0.40;;;;;;;-2.00;100.00;98583.63;5061140;28;20108;-76
2023/02/06 07:39:21;;;;;;;6.97;2.35;;;;;;;-2.04;100.00;98581.91;5041731;28;20032;-78
2023/02/06 07:41:48;;;;;;;0.60;0.60;;;;;;;-1.98;100.00;98581.03;5038697;28;20370;-76
2023/02/06 07:44:14;;;;;;;1.05;0.95;;;;;;;-2.00;100.00;98578.41;5048193;28;20067;-77
2023/02/06 07:46:41;;;;;;;1.02;1.02;;;;;;;-2.06;100.00;98549.56;5041032;28;20508;-76
2023/02/06 07:49:06;;;;;;;1.20;1.10;;;;;;;-1.84;100.00;98588.09;5052766;28;20021;-77
2023/02/06 07:51:32;;;;;;;0.50;0.50;;;;;;;-1.78;100.00;98572.38;5058428;28;20020;-76
2023/02/06 07:53:57;;;;;;;0.75;0.75;;;;;;;-1.56;100.00;98570.69;5050585;28;20408;-77
2023/02/06 07:56:24;;;;;;;0.50;0.50;;;;;;;-1.63;100.00;98574.16;5053457;28;20074;-76
2023/02/06 07:58:51;;;;;;;0.85;0.82;;;;;;;-1.52;100.00;98579.44;5048232;28;20025;-76
2023/02/06 08:01:16;;;;;;;0.50;0.50;;;;;;;-1.49;100.00;98585.56;5032953;28;20028;-77
2023/02/06 08:03:42;;;;;;;0.57;0.57;;;;;;;-1.29;99.15;98583.00;5048307;28;20424;-76
2023/02/06 08:06:09;;;;;;;0.30;0.30;;;;;;;-1.36;95.91;98582.09;5062288;28;20507;-77
2023/02/06 08:08:35;;;;;;;0.73;0.73;;;;;;;-1.55;95.67;98580.31;5033121;28;20511;-78
2023/02/06 08:11:04;;;;;;;1.17;1.13;;;;;;;-1.83;96.79;98579.34;5044660;28;20032;-77
2023/02/06 08:13:36;;;;;;;0.47;0.47;;;;;;;-1.45;99.84;98599.56;5068959;28;20021;-79
2023/02/06 08:16:04;;;;;;;0.40;0.40;;;;;;;-1.30;99.98;98592.59;5044801;28;20488;-77
2023/02/06 08:18:30;;;;;;;0.52;0.52;;;;;;;-1.01;97.21;98600.50;5034238;28;20040;-76
2023/02/06 08:21:06;;;;;;;0.30;0.30;;;;;;;-1.03;96.45;98591.75;5041260;28;20025;-76
2023/02/06 08:23:32;;;;;;;0.30;0.30;;;;;;;-0.86;93.93;98582.09;5043230;28;20554;-76
2023/02/06 08:26:07;;;;;;;1.02;1.02;;;;;;;-0.73;94.19;98598.75;5064139;28;20056;-76
2023/02/06 08:28:36;;;;;;;2.85;1.98;;;;;;;-0.62;91.47;98589.13;5047274;28;20498;-78
2023/02/06 08:31:19;;;;;;;1.55;0.85;;;;;;;-0.38;89.88;98593.44;5053066;28;20381;-77
2023/02/06 08:33:45;;;;;;;0.43;0.43;;;;;;;-0.16;84.98;98579.38;5041175;28;20052;-77
2023/02/06 08:36:12;;;;;;;1.13;0.90;;;;;;;-0.14;81.41;98574.97;5048035;28;20031;-76
2023/02/06 08:38:38;;;;;;;5.13;1.55;;;;;;;-0.07;84.14;98579.34;5052577;28;20060;-77
2023/02/06 08:41:04;;;;;;;0.52;0.52;;;;;;;0.14;80.05;98574.00;5056840;28;20397;-75
2023/02/06 08:43:33;;;;;;;0.28;0.28;;;;;;;0.33;78.57;98580.94;5048802;28;20031;-76
2023/02/06 08:45:58;;;;;;;0.40;0.40;;;;;;;0.36;79.40;98574.78;5040513;28;20067;-77
2023/02/06 08:48:25;;;;;;;0.25;0.25;;;;;;;0.57;77.97;98568.50;5044203;28;20056;-76
2023/02/06 08:51:00;;;;;;;0.98;0.98;;;;;;;0.80;73.05;98561.34;5044404;28;20427;-77
2023/02/06 08:53:26;;;;;;;0.30;0.30;;;;;;;0.98;73.22;98563.84;5041011;28;20025;-77
2023/02/06 08:55:57;;;;;;;1.60;1.50;;;;;;;0.74;74.13;98556.97;5037862;28;20109;-76
2023/02/06 08:58:42;;;;;;;0.85;0.85;;;;;;;1.04;73.24;98543.59;5061901;28;20496;-78
2023/02/06 09:01:12;;;;;;;1.85;0.80;;;;;;;1.16;75.99;98571.59;5047962;28;20461;-77
2023/02/06 09:03:38;;;;;;;7.78;1.23;;;;;;;1.91;71.02;98572.56;5043406;28;20056;-76
2023/02/06 09:06:04;;;;;;;17.05;4.53;;;;;;;2.18;67.37;98550.28;5046036;28;20037;-77
2023/02/06 09:08:30;;;;;;;1.67;0.98;;;;;;;2.41;63.09;98529.72;5044741;28;20028;-77
2023/02/06 09:10:56;;;;;;;1.00;0.70;;;;;;;2.83;60.42;98520.28;5054879;28;20131;-76
2023/02/06 09:13:22;;;;;;;1.33;1.23;;;;;;;3.24;60.56;98523.13;5045890;28;20020;-76
2023/02/06 09:15:53;;;;;;;0.45;0.45;;;;;;;2.98;61.50;98512.16;5054291;28;20056;-76
2023/02/06 09:18:19;;;;;;;0.70;0.70;;;;;;;2.69;61.81;98509.06;5067861;28;20111;-76
2023/02/06 09:20:48;;;;;;;0.30;0.30;;;;;;;3.34;58.73;98515.91;5039434;28;20358;-77
2023/02/06 09:23:15;;;;;;;0.20;0.20;;;;;;;3.40;58.09;98499.06;5054726;28;20107;-77
2023/02/06 09:25:41;;;;;;;0.10;0.10;;;;;;;3.16;58.34;98481.88;5047440;28;20043;-76
2023/02/06 09:28:06;;;;;;;0.60;0.60;;;;;;;4.02;55.68;98500.50;5055677;28;20388;-76
2023/02/06 09:30:32;;;;;;;0.88;0.82;;;;;;;4.13;56.67;98495.84;5052419;28;20273;-76
2023/02/06 09:32:57;;;;;;;1.58;1.23;;;;;;;4.41;55.49;98489.03;5042037;28;20067;-76
2023/02/06 09:35:23;;;;;;;2.03;1.08;;;;;;;4.79;54.77;98482.84;5047137;28;20033;-77
2023/02/06 09:37:48;;;;;;;1.65;1.23;;;;;;;4.54;54.76;98469.31;5055324;28;20078;-76
2023/02/06 09:40:18;;;;;;;0.40;0.40;;;;;;;4.07;54.78;98451.84;5040459;28;20143;-77
2023/02/06 09:42:43;;;;;;;2.85;1.65;;;;;;;4.82;55.52;98498.69;5067335;28;20107;-75
2023/02/06 09:45:13;;;;;;;0.60;0.60;;;;;;;4.62;55.37;98477.94;5043578;28;20041;-77
2023/02/06 09:47:44;;;;;;;0.95;0.77;;;;;;;3.83;56.86;98469.13;5043325;28;20082;-77
2023/02/06 09:50:17;;;;;;;3.45;0.73;;;;;;;3.51;56.14;98462.69;5060260;28;20467;-76
2023/02/06 09:53:04;;;;;;;0.75;0.75;;;;;;;4.33;56.32;98483.94;5045674;28;20025;-76
2023/02/06 09:55:49;;;;;;;1.15;0.90;;;;;;;4.65;55.53;98469.91;5062824;28;20024;-76
2023/02/06 09:58:24;;;;;;;4.40;1.02;;;;;;;5.81;52.12;98503.19;5041230;28;20496;-77
2023/02/06 10:00:59;;;;;;;0.95;0.95;;;;;;;6.86;51.51;98506.22;5046443;28;20086;-77
2023/02/06 10:03:48;;;;;;;2.97;1.45;;;;;;;6.90;50.20;98472.44;5063718;28;20083;-77
2023/02/06 10:06:20;;;;;;;0.35;0.35;;;;;;;7.95;45.60;98477.63;5067420;28;20028;-76
2023/02/06 10:09:09;;;;;;;0.47;0.47;;;;;;;6.87;47.34;98412.25;5069461;28;20070;-77
2023/02/06 10:11:37;;;;;;;0.95;0.95;;;;;;;5.89;47.68;98376.41;5052104;28;20035;-75
2023/02/06 10:14:06;;;;;;;0.32;0.32;;;;;;;4.87;49.79;98375.75;5058854;28;20135;-76
2023/02/06 10:16:40;;;;;;;0.77;0.77;;;;;;;4.83;50.45;98387.31;5042770;28;20036;-76
2023/02/06 10:19:42;;;;;;;1.30;1.05;;;;;;;4.97;51.53;98399.34;5051322;28;20033;-76
2023/02/06 10:22:53;;;;;;;0.57;0.57;;;;;;;3.72;53.17;98359.97;5057546;28;20051;-77
2023/02/06 10:25:32;;;;;;;1.42;1.33;;;;;;;4.32;53.50;98397.44;5011920;28;20040;-77
2023/02/06 10:28:01;;;;;;;0.60;0.60;;;;;;;4.89;52.62;98418.97;5045958;28;20053;-77
2023/02/06 10:30:38;;;;;;;0.30;0.30;;;;;;;4.47;53.31;98425.31;5047564;28;20389;-77
2023/02/06 10:33:13;;;;;;;0.60;0.60;;;;;;;4.30;55.50;98440.75;5063144;28;20013;-77
2023/02/06 10:36:01;;;;;;;0.85;0.77;;;;;;;3.91;54.02;98421.31;5039052;28;20027;-76
2023/02/06 10:38:26;;;;;;;0.98;0.98;;;;;;;4.37;54.59;98448.50;5070847;28;20028;-76
2023/02/06 10:40:55;;;;;;;0.30;0.30;;;;;;;4.40;51.89;98410.47;5069421;28;20066;-76
2023/02/06 10:43:39;;;;;;;1.38;0.70;;;;;;;3.97;53.53;98415.03;5070832;28;20036;-76
2023/02/06 10:46:42;;;;;;;1.17;1.00;;;;;;;3.83;57.76;98442.66;5044942;28;20040;-76
2023/02/06 10:49:34;;;;;;;1.48;1.15;;;;;;;3.18;57.18;98419.28;5042835;28;20029;-77
2023/02/06 10:52:08;;;;;;;0.53;0.53;;;;;;;3.02;59.04;98428.38;5038506;28;20480;-77
2023/02/06 10:54:44;;;;;;;3.67;1.52;;;;;;;2.78;60.06;98423.53;5052471;28;20020;-77
2023/02/06 10:57:19;;;;;;;4.22;2.53;;;;;;;2.43;59.27;98414.41;5061940;28;20107;-76
2023/02/06 10:59:50;;;;;;;1.85;1.27;;;;;;;3.09;62.78;98462.59;5062481;28;20021;-78
2023/02/06 11:02:26;;;;;;;1.65;0.70;;;;;;;4.03;58.50;98475.78;5041581;28;20028;-78
2023/02/06 11:05:06;;;;;;;0.25;0.25;;;;;;;3.77;54.80;98426.91;5042148;28;20048;-78
2023/02/06 11:08:06;;;;;;;0.28;0.28;;;;;;;3.67;56.59;98435.06;5034263;28;20024;-77
2023/02/06 11:10:31;;;;;;;0.88;0.55;;;;;;;3.45;55.64;98421.38;5050254;28;20527;-78
2023/02/06 11:13:10;;;;;;;0.57;0.57;;;;;;;2.94;57.75;98419.72;5043813;28;20024;-78
2023/02/06 11:15:59;;;;;;;0.63;0.50;;;;;;;2.56;61.15;98430.94;5065741;28;20158;-78
2023/02/06 11:18:30;;;;;;;4.63;1.20;;;;;;;2.11;60.91;98424.59;5056597;28;20473;-79
2023/02/06 11:20:55;;;;;;;1.00;0.93;;;;;;;1.90;63.62;98424.91;5041633;28;20043;-79
2023/02/06 11:23:22;;;;;;;1.15;1.02;;;;;;;2.15;60.11;98428.94;5033821;28;20029;-80
2023/02/06 11:26:11;;;;;;;0.75;0.57;;;;;;;2.32;62.55;98445.41;5033678;28;20043;-80
2023/02/06 11:28:40;;;;;;;1.45;0.95;;;;;;;2.51;62.15;98428.38;5061666;28;20024;-78
2023/02/06 11:31:07;;;;;;;0.77;0.77;;;;;;;2.48;59.90;98420.50;5053965;28;20095;-78
2023/02/06 11:33:42;;;;;;;0.30;0.30;;;;;;;2.93;59.91;98440.00;5061968;28;20109;-78
2023/02/06 11:36:50;;;;;;;0.43;0.43;;;;;;;3.41;58.75;98435.59;5059336;28;20033;-77
2023/02/06 11:39:29;;;;;;;4.03;2.13;;;;;;;2.99;58.36;98410.81;5043063;28;20048;-77
2023/02/06 11:42:09;;;;;;;0.52;0.52;;;;;;;2.87;58.96;98403.09;5044753;28;20032;-77
2023/02/06 11:44:42;;;;;;;0.63;0.63;;;;;;;2.04;62.09;98391.28;5040380;28;20115;-77
2023/02/06 11:47:34;;;;;;;0.30;0.30;;;;;;;1.60;64.71;98405.94;5043086;28;20024;-76
2023/02/06 11:50:12;;;;;;;0.63;0.63;;;;;;;1.73;66.17;98411.06;5046503;28;20056;-77
2023/02/06 11:52:43;;;;;;;0.10;0.10;;;;;;;1.61;66.23;98412.09;5060995;28;20461;-77
2023/02/06 11:55:30;;;;;;;1.23;1.00;;;;;;;1.43;70.51;98418.47;5033243;28;20029;-77
2023/02/06 11:58:04;;;;;;;1.85;1.08;;;;;;;1.56;70.84;98435.00;5059161;28;20039;-77